createdAt,value
2023-08-09T00:01:25.871Z,101373.91
2023-08-09T00:03:52.498Z,101375.16
2023-08-09T00:06:19.115Z,101371.09
2023-08-09T00:08:45.610Z,101365.97
2023-08-09T00:11:12.392Z,101367.19
2023-08-09T00:13:39.042Z,101362.34
2023-08-09T00:16:06.350Z,101357.44
2023-08-09T00:18:32.941Z,101364.81
2023-08-09T00:20:59.439Z,101364.09
2023-08-09T00:23:25.967Z,101372.97
2023-08-09T00:25:52.568Z,101368.09
2023-08-09T00:28:19.079Z,101360.44
2023-08-09T00:30:45.631Z,101360.56
2023-08-09T00:33:12.138Z,101372.22
2023-08-09T00:35:38.697Z,101366.50
2023-08-09T00:38:05.184Z,101371.06
2023-08-09T00:40:32.440Z,101377.28
2023-08-09T00:42:58.874Z,101383.53
2023-08-09T00:45:25.482Z,101386.56
2023-08-09T00:47:52.606Z,101386.97
2023-08-09T00:50:19.176Z,101388.91
2023-08-09T00:52:46.281Z,101394.41
2023-08-09T00:55:13.353Z,101394.41
2023-08-09T00:57:39.984Z,101397.31
2023-08-09T01:00:07.229Z,101401.84
2023-08-09T01:02:33.850Z,101399.34
2023-08-09T01:05:00.654Z,101392.78
2023-08-09T01:07:53.641Z,101393.75
2023-08-09T01:10:29.919Z,101386.97
2023-08-09T01:13:02.550Z,101387.09
2023-08-09T01:15:32.249Z,101393.31
2023-08-09T01:17:59.112Z,101384.00
2023-08-09T01:20:26.966Z,101389.25
2023-08-09T01:23:12.712Z,101389.63
2023-08-09T01:25:39.802Z,101389.78
2023-08-09T01:28:06.459Z,101389.31
2023-08-09T01:30:33.097Z,101397.34
2023-08-09T01:33:01.096Z,101395.81
2023-08-09T01:35:31.604Z,101385.50
2023-08-09T01:38:06.893Z,101400.47
2023-08-09T01:40:34.419Z,101393.81
2023-08-09T01:43:01.236Z,101387.94
2023-08-09T01:45:29.616Z,101394.88
2023-08-09T01:47:56.351Z,101408.16
2023-08-09T01:50:28.155Z,101407.66
2023-08-09T01:52:59.288Z,101404.34
2023-08-09T01:55:27.415Z,101409.88
2023-08-09T01:57:55.178Z,101414.28
2023-08-09T02:00:25.416Z,101412.72
2023-08-09T02:02:53.735Z,101411.06
2023-08-09T02:05:21.257Z,101420.53
2023-08-09T02:07:48.776Z,101416.19
2023-08-09T02:10:15.958Z,101426.16
2023-08-09T02:12:48.030Z,101427.13
2023-08-09T02:15:19.930Z,101425.31
2023-08-09T02:17:47.348Z,101424.22
2023-08-09T02:20:14.219Z,101421.59
2023-08-09T02:22:41.692Z,101429.25
2023-08-09T02:25:09.301Z,101438.94
2023-08-09T02:27:35.910Z,101437.97
2023-08-09T02:30:05.977Z,101436.06
2023-08-09T02:32:33.433Z,101438.69
2023-08-09T02:34:59.936Z,101438.69
2023-08-09T02:37:27.156Z,101435.22
2023-08-09T02:39:53.861Z,101438.56
2023-08-09T02:42:20.428Z,101434.13
2023-08-09T02:44:46.952Z,101439.53
2023-08-09T02:47:13.484Z,101438.94
2023-08-09T02:49:39.930Z,101441.59
2023-08-09T02:52:06.578Z,101451.25
2023-08-09T02:54:33.038Z,101453.78
2023-08-09T02:56:59.862Z,101450.19
2023-08-09T02:59:26.555Z,101456.41
2023-08-09T03:01:53.225Z,101456.41
2023-08-09T03:04:19.698Z,101459.03
2023-08-09T03:06:46.224Z,101457.25
2023-08-09T03:09:12.687Z,101453.66
2023-08-09T03:11:39.158Z,101459.75
2023-08-09T03:14:05.862Z,101461.53
2023-08-09T03:16:32.532Z,101458.91
2023-08-09T03:18:59.091Z,101464.06
2023-08-09T03:21:25.569Z,101470.00
2023-08-09T03:23:52.009Z,101466.56
2023-08-09T03:26:18.597Z,101477.22
2023-08-09T03:28:45.196Z,101472.22
2023-08-09T03:31:11.910Z,101474.00
2023-08-09T03:33:38.411Z,101474.84
2023-08-09T03:36:05.400Z,101473.88
2023-08-09T03:38:31.842Z,101473.88
2023-08-09T03:40:58.384Z,101479.38
2023-08-09T03:43:24.900Z,101484.63
2023-08-09T03:45:51.548Z,101483.94
2023-08-09T03:48:18.079Z,101483.94
2023-08-09T03:50:44.551Z,101497.22
2023-08-09T03:53:11.054Z,101501.53
2023-08-09T03:55:37.610Z,101500.56
2023-08-09T03:58:04.291Z,101504.84
2023-08-09T04:00:30.801Z,101516.97
2023-08-09T04:02:57.793Z,101508.09
2023-08-09T04:05:24.856Z,101509.91
2023-08-09T04:07:51.555Z,101506.16
2023-08-09T04:10:18.216Z,101513.09
2023-08-09T04:12:44.836Z,101516.00
2023-08-09T04:15:11.408Z,101515.03
2023-08-09T04:17:38.016Z,101511.69
2023-08-09T04:20:10.144Z,101524.94
2023-08-09T04:22:36.959Z,101516.97
2023-08-09T04:25:05.111Z,101523.63
2023-08-09T04:27:33.188Z,101526.13
2023-08-09T04:30:01.665Z,101531.22
2023-08-09T04:32:28.325Z,101536.34
2023-08-09T04:34:54.868Z,101535.25
2023-08-09T04:37:21.554Z,101535.38
2023-08-09T04:39:48.082Z,101530.13
2023-08-09T04:42:14.855Z,101534.53
2023-08-09T04:44:41.392Z,101539.69
2023-08-09T04:47:07.923Z,101545.69
2023-08-09T04:49:34.341Z,101550.94
2023-08-09T04:52:00.724Z,101543.75
2023-08-09T04:54:27.184Z,101549.59
2023-08-09T04:56:53.742Z,101552.97
2023-08-09T04:59:20.299Z,101548.66
2023-08-09T05:01:46.765Z,101562.28
2023-08-09T05:04:13.309Z,101562.19
2023-08-09T05:06:41.270Z,101564.44
2023-08-09T05:09:08.080Z,101558.81
2023-08-09T05:11:34.556Z,101558.31
2023-08-09T05:14:00.990Z,101557.91
2023-08-09T05:16:27.635Z,101563.78
2023-08-09T05:18:54.223Z,101572.28
2023-08-09T05:21:20.817Z,101576.34
2023-08-09T05:23:47.624Z,101570.94
2023-08-09T05:26:14.168Z,101568.78
2023-08-09T05:28:40.638Z,101572.81
2023-08-09T05:31:07.198Z,101580.38
2023-08-09T05:33:33.706Z,101579.88
2023-08-09T05:36:01.168Z,101579.25
2023-08-09T05:38:27.910Z,101584.97
2023-08-09T05:40:55.629Z,101587.47
2023-08-09T05:43:22.100Z,101595.59
2023-08-09T05:45:48.655Z,101595.91
2023-08-09T05:48:15.283Z,101592.31
2023-08-09T05:50:41.889Z,101592.50
2023-08-09T05:53:10.921Z,101597.41
2023-08-09T05:55:38.161Z,101599.69
2023-08-09T05:58:05.205Z,101595.25
2023-08-09T06:00:32.025Z,101610.66
2023-08-09T06:02:58.840Z,101608.66
2023-08-09T06:05:28.211Z,101604.53
2023-08-09T06:07:55.038Z,101601.75
2023-08-09T06:13:06.286Z,101615.53
2023-08-09T06:15:33.064Z,101614.44
2023-08-09T06:17:59.611Z,101612.13
2023-08-09T06:20:28.993Z,101613.53
2023-08-09T06:22:55.768Z,101623.13
2023-08-09T06:25:22.460Z,101615.53
2023-08-09T06:27:49.039Z,101618.06
2023-08-09T06:30:15.628Z,101628.72
2023-08-09T06:32:42.294Z,101631.28
2023-08-09T06:35:10.648Z,101631.16
2023-08-09T06:37:37.610Z,101640.44
2023-08-09T06:40:08.020Z,101645.19
2023-08-09T06:42:34.761Z,101646.66
2023-08-09T06:45:02.060Z,101644.44
2023-08-09T06:47:28.841Z,101642.94
2023-08-09T06:49:55.512Z,101651.72
2023-08-09T06:52:22.029Z,101654.69
2023-08-09T06:54:51.482Z,101656.50
2023-08-09T06:57:19.975Z,101658.38
2023-08-09T06:59:48.444Z,101666.31
2023-08-09T07:02:15.792Z,101668.69
2023-08-09T07:04:42.508Z,101661.44
2023-08-09T07:07:09.326Z,101652.38
2023-08-09T07:09:35.927Z,101656.56
2023-08-09T07:12:03.118Z,101653.91
2023-08-09T07:14:29.660Z,101660.63
2023-08-09T07:16:56.190Z,101664.66
2023-08-09T07:19:23.041Z,101657.97
2023-08-09T07:21:49.690Z,101662.97
2023-08-09T07:24:16.219Z,101660.47
2023-08-09T07:26:42.774Z,101654.59
2023-08-09T07:29:09.834Z,101656.06
2023-08-09T07:31:36.680Z,101663.16
2023-08-09T07:34:03.351Z,101654.25
2023-08-09T07:36:30.090Z,101657.91
2023-08-09T07:38:56.804Z,101661.44
2023-08-09T07:41:23.349Z,101665.50
2023-08-09T07:43:49.934Z,101659.94
2023-08-09T07:46:16.630Z,101671.13
2023-08-09T07:48:43.204Z,101670.41
2023-08-09T07:51:13.143Z,101669.59
2023-08-09T07:53:40.577Z,101678.97
2023-08-09T07:56:07.240Z,101677.25
2023-08-09T07:58:33.784Z,101676.38
2023-08-09T08:01:00.352Z,101683.09
2023-08-09T08:03:26.853Z,101684.25
2023-08-09T08:05:53.368Z,101681.38
2023-08-09T08:08:20.256Z,101687.88
2023-08-09T08:10:46.773Z,101686.28
2023-08-09T08:13:13.655Z,101691.72
2023-08-09T08:15:40.492Z,101691.44
2023-08-09T08:18:08.255Z,101698.13
2023-08-09T08:20:35.014Z,101689.94
2023-08-09T08:23:01.634Z,101700.03
2023-08-09T08:25:29.409Z,101706.41
2023-08-09T08:27:56.212Z,101703.78
2023-08-09T08:30:22.838Z,101701.88
2023-08-09T08:32:50.490Z,101704.91
2023-08-09T08:35:21.821Z,101709.91
2023-08-09T08:37:50.545Z,101704.22
2023-08-09T08:40:22.127Z,101712.16
2023-08-09T08:42:49.986Z,101714.00
2023-08-09T08:45:16.810Z,101720.41
2023-08-09T08:47:45.607Z,101718.16
2023-08-09T08:50:14.729Z,101716.50
2023-08-09T08:52:47.443Z,101725.06
2023-08-09T08:55:15.630Z,101716.75
2023-08-09T08:57:44.110Z,101716.09
2023-08-09T09:00:26.900Z,101715.72
2023-08-09T09:02:54.860Z,101720.69
2023-08-09T09:05:21.947Z,101721.41
2023-08-09T09:07:51.779Z,101715.47
2023-08-09T09:10:21.155Z,101722.81
2023-08-09T09:12:51.500Z,101720.09
2023-08-09T09:15:19.022Z,101724.25
2023-08-09T09:17:46.832Z,101718.44
2023-08-09T09:20:24.413Z,101721.81
2023-08-09T09:22:53.020Z,101712.50
2023-08-09T09:25:20.002Z,101723.63
2023-08-09T09:27:50.764Z,101727.28
2023-08-09T09:30:20.843Z,101722.41
2023-08-09T09:32:58.280Z,101720.94
2023-08-09T09:35:27.100Z,101715.81
2023-08-09T09:37:55.374Z,101712.28
2023-08-09T09:40:36.523Z,101707.41
2023-08-09T09:43:07.586Z,101711.09
2023-08-09T09:45:35.400Z,101709.09
2023-08-09T09:48:03.466Z,101708.25
2023-08-09T09:50:31.086Z,101704.28
2023-08-09T09:52:57.834Z,101703.47
2023-08-09T09:55:28.987Z,101703.66
2023-08-09T09:57:57.199Z,101714.81
2023-08-09T10:00:23.744Z,101718.97
2023-08-09T10:02:52.903Z,101731.41
2023-08-09T10:05:27.571Z,101721.81
2023-08-09T10:07:59.717Z,101711.75
2023-08-09T10:10:27.328Z,101718.91
2023-08-09T10:12:57.494Z,101713.28
2023-08-09T10:15:28.656Z,101722.47
2023-08-09T10:18:17.530Z,101728.13
2023-08-09T10:20:53.105Z,101729.63
2023-08-09T10:23:21.536Z,101734.94
2023-08-09T10:25:49.805Z,101730.13
2023-08-09T10:28:16.731Z,101726.13
2023-08-09T10:30:44.641Z,101719.09
2023-08-09T10:33:11.394Z,101719.41
2023-08-09T10:35:45.705Z,101720.63
2023-08-09T10:38:26.728Z,101718.28
2023-08-09T10:40:56.817Z,101726.31
2023-08-09T10:43:30.957Z,101731.06
2023-08-09T10:45:57.892Z,101734.59
2023-08-09T10:48:29.055Z,101734.94
2023-08-09T10:53:59.791Z,101742.91
2023-08-09T10:56:43.085Z,101734.41
2023-08-09T10:59:21.015Z,101743.41
2023-08-09T11:01:49.060Z,101742.34
2023-08-09T11:04:16.150Z,101738.31
2023-08-09T11:06:44.525Z,101743.75
2023-08-09T11:09:15.992Z,101748.81
2023-08-09T11:11:45.671Z,101750.00
2023-08-09T11:14:14.897Z,101757.84
2023-08-09T11:16:41.754Z,101744.16
2023-08-09T11:19:28.076Z,101750.47
2023-08-09T11:21:57.924Z,101746.56
2023-08-09T11:24:28.012Z,101735.69
2023-08-09T11:26:57.041Z,101735.88
2023-08-09T11:29:27.155Z,101726.84
2023-08-09T11:31:55.976Z,101735.47
2023-08-09T11:34:25.212Z,101738.28
2023-08-09T11:36:54.933Z,101751.03
2023-08-09T11:39:25.000Z,101746.22
2023-08-09T11:41:52.135Z,101747.53
2023-08-09T11:44:22.715Z,101752.34
2023-08-09T11:46:50.457Z,101758.78
2023-08-09T11:49:16.942Z,101757.84
2023-08-09T11:51:43.390Z,101762.66
2023-08-09T11:54:10.627Z,101767.09
2023-08-09T11:56:38.235Z,101777.91
2023-08-09T11:59:08.158Z,101782.91
2023-08-09T12:01:38.517Z,101782.84
2023-08-09T12:04:16.716Z,101774.50
2023-08-09T12:06:46.063Z,101794.19
2023-08-09T12:09:36.763Z,101782.09
2023-08-09T12:12:15.496Z,101785.34
2023-08-09T12:14:42.765Z,101783.38
2023-08-09T12:17:28.208Z,101788.19
2023-08-09T12:20:03.040Z,101797.66
2023-08-09T12:22:30.195Z,101790.50
2023-08-09T12:24:58.278Z,101786.34
2023-08-09T12:27:25.762Z,101789.84
2023-08-09T12:29:52.618Z,101795.44
2023-08-09T12:32:19.255Z,101801.06
2023-08-09T12:34:48.610Z,101794.94
2023-08-09T12:37:15.522Z,101804.91
2023-08-09T12:39:42.041Z,101804.72
2023-08-09T12:42:08.669Z,101810.22
2023-08-09T12:44:35.378Z,101813.25
2023-08-09T12:47:02.184Z,101812.31
2023-08-09T12:49:28.659Z,101816.94
2023-08-09T12:51:58.177Z,101813.88
2023-08-09T12:54:24.769Z,101817.47
2023-08-09T12:56:53.890Z,101822.72
2023-08-09T12:59:23.794Z,101827.75
2023-08-09T13:01:50.433Z,101821.09
2023-08-09T13:04:20.251Z,101830.88
2023-08-09T13:06:47.090Z,101825.97
2023-08-09T13:09:13.816Z,101832.09
2023-08-09T13:11:41.156Z,101837.66
2023-08-09T13:14:07.802Z,101832.88
2023-08-09T13:16:34.521Z,101827.47
2023-08-09T13:19:01.532Z,101828.69
2023-08-09T13:21:28.080Z,101842.19
2023-08-09T13:23:54.553Z,101847.06
2023-08-09T13:26:21.232Z,101842.72
2023-08-09T13:28:50.819Z,101842.91
2023-08-09T13:31:17.513Z,101849.75
2023-08-09T13:33:44.033Z,101846.44
2023-08-09T13:36:10.520Z,101856.91
2023-08-09T13:38:42.274Z,101860.00
2023-08-09T13:41:10.297Z,101863.03
2023-08-09T13:43:37.052Z,101864.31
2023-08-09T13:46:04.502Z,101863.22
2023-08-09T13:48:31.116Z,101869.66
2023-08-09T13:50:57.820Z,101865.31
2023-08-09T13:53:24.353Z,101867.75
2023-08-09T13:55:52.478Z,101869.47
2023-08-09T13:58:19.083Z,101883.72
2023-08-09T14:00:47.797Z,101887.84
2023-08-09T14:03:16.066Z,101894.53
2023-08-09T14:05:50.726Z,101894.59
2023-08-09T14:08:18.213Z,101903.13
2023-08-09T14:10:45.611Z,101896.97
2023-08-09T14:13:12.143Z,101903.78
2023-08-09T14:15:38.702Z,101901.97
2023-08-09T14:18:08.180Z,101903.28
2023-08-09T14:20:36.011Z,101893.69
2023-08-09T14:23:03.228Z,101896.16
2023-08-09T14:25:30.052Z,101906.56
2023-08-09T14:27:56.480Z,101907.38
2023-08-09T14:30:23.639Z,101899.72
2023-08-09T14:32:50.365Z,101898.66
2023-08-09T14:35:17.416Z,101913.66
2023-08-09T14:37:43.999Z,101916.41
2023-08-09T14:40:11.013Z,101910.31
2023-08-09T14:42:42.282Z,101917.88
2023-08-09T14:45:11.269Z,101917.97
2023-08-09T14:47:39.267Z,101922.59
2023-08-09T14:50:07.267Z,101923.56
2023-08-09T14:52:33.848Z,101930.09
2023-08-09T14:55:00.353Z,101938.72
2023-08-09T14:57:26.850Z,101935.22
2023-08-09T14:59:53.343Z,101942.88
2023-08-09T15:02:19.995Z,101944.19
2023-08-09T15:04:46.996Z,101941.34
2023-08-09T15:07:16.865Z,101956.59
2023-08-09T15:09:44.471Z,101955.38
2023-08-09T15:12:11.375Z,101957.44
2023-08-09T15:14:37.898Z,101957.41
2023-08-09T15:19:37.552Z,101968.31
2023-08-09T15:22:04.188Z,101976.63
2023-08-09T15:24:31.721Z,101980.63
2023-08-09T15:26:58.528Z,101986.63
2023-08-09T15:29:25.140Z,101969.09
2023-08-09T15:31:51.682Z,101979.31
2023-08-09T15:34:18.185Z,101979.50
2023-08-09T15:36:44.744Z,101980.66
2023-08-09T15:39:11.254Z,101973.22
2023-08-09T15:41:37.752Z,101974.06
2023-08-09T15:44:04.434Z,101985.97
2023-08-09T15:46:31.071Z,101984.34
2023-08-09T15:48:58.755Z,101981.91
2023-08-09T15:51:25.514Z,101987.84
2023-08-09T15:53:52.075Z,101983.41
2023-08-09T15:56:18.668Z,101973.97
2023-08-09T15:58:45.760Z,101984.03
2023-08-09T16:01:14.514Z,101982.44
2023-08-09T16:03:43.050Z,101989.97
2023-08-09T16:06:13.626Z,101994.19
2023-08-09T16:08:41.511Z,101987.03
2023-08-09T16:11:08.465Z,101996.31
2023-08-09T16:13:34.967Z,101987.78
2023-08-09T16:16:11.656Z,101988.34
2023-08-09T16:18:43.768Z,101995.97
2023-08-09T16:21:10.403Z,101984.28
2023-08-09T16:23:36.903Z,101980.44
2023-08-09T16:26:03.429Z,101992.78
2023-08-09T16:28:29.908Z,101987.78
2023-08-09T16:30:56.955Z,101993.69
2023-08-09T16:33:23.517Z,101999.53
2023-08-09T16:35:49.950Z,101999.38
2023-08-09T16:38:16.450Z,101997.84
2023-08-09T16:40:43.080Z,101998.03
2023-08-09T16:43:09.616Z,101997.19
2023-08-09T16:45:36.215Z,101995.38
2023-08-09T16:48:02.662Z,102002.72
2023-08-09T16:50:29.190Z,102002.19
2023-08-09T16:52:55.761Z,102005.38
2023-08-09T16:55:22.933Z,102009.56
2023-08-09T16:57:49.602Z,102011.41
2023-08-09T17:00:16.891Z,102010.22
2023-08-09T17:02:44.659Z,102010.41
2023-08-09T17:05:14.902Z,101999.53
2023-08-09T17:07:42.929Z,102013.38
2023-08-09T17:10:09.804Z,102016.22
2023-08-09T17:12:36.547Z,102014.50
2023-08-09T17:15:03.718Z,102019.84
2023-08-09T17:17:31.171Z,102030.44
2023-08-09T17:19:57.834Z,102022.28
2023-08-09T17:22:24.270Z,102022.81
2023-08-09T17:24:50.754Z,102026.63
2023-08-09T17:27:17.305Z,102017.25
2023-08-09T17:29:43.778Z,102013.50
2023-08-09T17:32:11.736Z,102021.59
2023-08-09T17:34:38.263Z,102022.03
2023-08-09T17:37:06.188Z,102030.41
2023-08-09T17:39:32.808Z,102023.00
2023-08-09T17:41:59.359Z,102027.69
2023-08-09T17:44:25.882Z,102026.50
2023-08-09T17:46:53.557Z,102036.91
2023-08-09T17:49:20.094Z,102035.19
2023-08-09T17:51:46.666Z,102029.94
2023-08-09T17:54:13.174Z,102029.28
2023-08-09T17:56:39.800Z,102030.94
2023-08-09T17:59:06.829Z,102033.94
2023-08-09T18:01:33.566Z,102032.44
2023-08-09T18:04:00.031Z,102046.22
2023-08-09T18:06:26.792Z,102047.19
2023-08-09T18:08:53.801Z,102051.31
2023-08-09T18:11:23.093Z,102063.56
2023-08-09T18:13:49.552Z,102069.25
2023-08-09T18:16:16.866Z,102046.13
2023-08-09T18:18:43.426Z,102051.84
2023-08-09T18:21:09.903Z,102060.91
2023-08-09T18:23:37.740Z,102055.75
2023-08-09T18:26:04.315Z,102073.38
2023-08-09T18:28:32.870Z,102062.22
2023-08-09T18:30:59.275Z,102072.31
2023-08-09T18:33:26.663Z,102071.97
2023-08-09T18:35:57.330Z,102074.94
2023-08-09T18:38:23.965Z,102083.59
2023-08-09T18:40:50.456Z,102075.97
2023-08-09T18:43:16.882Z,102082.47
2023-08-09T18:45:43.474Z,102077.31
2023-08-09T18:48:10.041Z,102092.56
2023-08-09T18:50:37.590Z,102087.00
2023-08-09T18:53:05.104Z,102095.88
2023-08-09T18:55:31.800Z,102094.75
2023-08-09T18:57:58.705Z,102099.50
2023-08-09T19:00:26.083Z,102087.78
2023-08-09T19:02:52.898Z,102093.97
2023-08-09T19:05:22.201Z,102098.75
2023-08-09T19:07:49.693Z,102096.78
2023-08-09T19:10:16.177Z,102104.03
2023-08-09T19:12:42.847Z,102098.88
2023-08-09T19:15:09.729Z,102109.22
2023-08-09T19:17:36.409Z,102104.31
2023-08-09T19:20:05.207Z,102107.25
2023-08-09T19:22:31.935Z,102105.16
2023-08-09T19:24:58.420Z,102112.09
2023-08-09T19:27:25.442Z,102113.75
2023-08-09T19:30:15.246Z,102106.88
2023-08-09T19:32:41.933Z,102115.94
2023-08-09T19:35:09.851Z,102117.44
2023-08-09T19:37:37.843Z,102117.69
2023-08-09T19:40:06.155Z,102122.09
2023-08-09T19:42:36.203Z,102127.41
2023-08-09T19:45:03.896Z,102120.56
2023-08-09T19:47:32.481Z,102119.81
2023-08-09T19:49:59.050Z,102127.19
2023-08-09T19:52:25.560Z,102132.44
2023-08-09T19:54:52.076Z,102139.50
2023-08-09T19:57:18.645Z,102138.03
2023-08-09T19:59:45.674Z,102138.44
2023-08-09T20:02:12.282Z,102135.56
2023-08-09T20:04:39.255Z,102123.97
2023-08-09T20:07:06.265Z,102127.94
2023-08-09T20:09:33.082Z,102136.19
2023-08-09T20:11:59.840Z,102136.75
2023-08-09T20:14:26.387Z,102132.53
2023-08-09T20:16:52.979Z,102142.53
2023-08-09T20:19:19.728Z,102149.66
2023-08-09T20:21:46.384Z,102155.22
2023-08-09T20:24:33.375Z,102152.47
2023-08-09T20:26:59.933Z,102158.72
2023-08-09T20:29:26.416Z,102152.03
2023-08-09T20:31:52.893Z,102149.97
2023-08-09T20:34:19.380Z,102158.38
2023-08-09T20:36:45.956Z,102154.06
2023-08-09T20:39:13.123Z,102148.31
2023-08-09T20:41:39.640Z,102150.34
2023-08-09T20:44:06.298Z,102154.09
2023-08-09T20:46:32.851Z,102160.81
2023-08-09T20:48:59.326Z,102156.25
2023-08-09T20:51:25.816Z,102153.00
2023-08-09T20:53:52.364Z,102159.00
2023-08-09T20:56:19.147Z,102148.78
2023-08-09T20:58:46.113Z,102146.66
2023-08-09T21:01:13.892Z,102152.03
2023-08-09T21:03:40.470Z,102153.84
2023-08-09T21:06:07.212Z,102160.81
2023-08-09T21:08:33.769Z,102165.34
2023-08-09T21:11:00.252Z,102167.72
2023-08-09T21:13:26.791Z,102167.84
2023-08-09T21:15:53.495Z,102168.31
2023-08-09T21:18:20.247Z,102167.22
2023-08-09T21:20:49.266Z,102161.56
2023-08-09T21:23:16.054Z,102165.03
2023-08-09T21:25:43.394Z,102151.84
2023-08-09T21:28:11.964Z,102161.69
2023-08-09T21:30:39.484Z,102166.19
2023-08-09T21:33:09.409Z,102170.63
2023-08-09T21:35:36.965Z,102168.41
2023-08-09T21:38:03.680Z,102171.63
2023-08-09T21:40:31.608Z,102174.50
2023-08-09T21:42:58.081Z,102173.44
2023-08-09T21:45:24.520Z,102171.25
2023-08-09T21:47:51.029Z,102169.91
2023-08-09T21:50:17.549Z,102178.50
2023-08-09T21:52:44.326Z,102178.72
2023-08-09T21:55:10.791Z,102177.41
2023-08-09T21:57:37.224Z,102175.72
2023-08-09T22:00:04.438Z,102171.03
2023-08-09T22:02:31.040Z,102160.72
2023-08-09T22:04:57.578Z,102173.16
2023-08-09T22:07:24.822Z,102176.97
2023-08-09T22:09:51.265Z,102172.75
2023-08-09T22:12:21.706Z,102172.41
2023-08-09T22:14:48.201Z,102173.06
2023-08-09T22:17:14.735Z,102169.66
2023-08-09T22:19:41.308Z,102172.66
2023-08-09T22:24:37.287Z,102178.13
2023-08-09T22:27:03.794Z,102178.13
2023-08-09T22:29:31.600Z,102166.56
2023-08-09T22:32:00.236Z,102169.28
2023-08-09T22:34:26.830Z,102174.34
2023-08-09T22:36:53.281Z,102175.38
2023-08-09T22:39:19.782Z,102171.59
2023-08-09T22:41:46.289Z,102176.03
2023-08-09T22:44:12.737Z,102175.06
2023-08-09T22:46:39.243Z,102176.03
2023-08-09T22:49:05.770Z,102178.22
2023-08-09T22:51:32.210Z,102187.09
2023-08-09T22:53:58.623Z,102189.72
2023-08-09T22:56:25.208Z,102186.00
2023-08-09T22:58:52.249Z,102186.63
2023-08-09T23:01:18.815Z,102185.69
2023-08-09T23:03:45.417Z,102183.13
2023-08-09T23:06:12.043Z,102185.69
2023-08-09T23:08:38.763Z,102185.69
2023-08-09T23:11:06.698Z,102189.16
2023-08-09T23:13:33.297Z,102192.63
2023-08-09T23:16:00.681Z,102191.91
2023-08-09T23:18:27.275Z,102182.28
2023-08-09T23:20:53.791Z,102187.47
2023-08-09T23:23:20.664Z,102198.03
2023-08-09T23:25:47.289Z,102198.13
2023-08-09T23:28:14.109Z,102204.16
2023-08-09T23:30:43.471Z,102208.34
2023-08-09T23:33:10.050Z,102207.38
2023-08-09T23:35:36.507Z,102207.38
2023-08-09T23:38:02.955Z,102207.38
2023-08-09T23:40:29.455Z,102209.81
2023-08-09T23:42:56.049Z,102212.44
2023-08-09T23:45:22.727Z,102213.28
2023-08-09T23:47:52.046Z,102223.94
2023-08-09T23:50:18.586Z,102219.41
2023-08-09T23:52:45.019Z,102221.28
2023-08-09T23:55:11.533Z,102223.09
2023-08-09T23:57:38.136Z,102224.78
